Terminal Aerodrome Forecast
Issued by NWS Blacksburg, VA

Current Version | Previous Version | Graphics & Text | Print | Product List | Glossary On
Versions: 1 2 3 4 5 6 7 8 9 10 11 12 13 14 15 16 17 18 19 20 21 22 23 24 25 26 27 28 29 30 31 32 33
000
FTUS41 KRNK 231135
TAFBLF
TAF
KBLF 231135Z 2312/2412 VRB06KT P6SM VCSH BKN004 OVC007
     FM231300 10008KT 5SM -SHRA BR OVC008
     FM231600 11008KT 3SM RA BR OVC015
     FM240700 09009KT 3SM -RA BR OVC009=

USA.gov is the U.S. government's official web portal to all federal, state and local government web resources and services.